Time;durP1;ratioP1;P1;durP2;ratioP2;P2;SDS_P1;SDS_P2;PMS_P1;PMS_P2;Temp;Humidity;BMP_temperature;BMP_pressure;BME280_temperature;BME280_humidity;BME280_pressure;Samples;Min_cycle;Max_cycle;Signal;HPM_P1;HPM_P2
2023/10/09 00:01:01;;;;;;;;;;;;;;;13.01;100.00;101896.50;5114270;28;19915;-52
2023/10/09 00:03:27;;;;;;;;;;;;;;;12.99;100.00;101904.22;5114874;28;19912;-52
2023/10/09 00:05:53;;;;;;;;;;;;;;;12.99;100.00;101893.84;5114998;28;19923;-50
2023/10/09 00:08:22;;;;;;;;;;;;;;;13.04;100.00;101893.13;5113666;28;19912;-52
2023/10/09 00:10:54;;;;;;;;;;;;;;;13.08;100.00;101893.31;5115080;28;19912;-52
2023/10/09 00:13:30;;;;;;;;;;;;;;;13.12;100.00;101884.84;5114666;28;19912;-52
2023/10/09 00:16:00;;;;;;;;;;;;;;;13.15;100.00;101878.88;5113981;28;19912;-52
2023/10/09 00:18:29;;;;;;;;;;;;;;;13.17;100.00;101898.81;5114546;28;19965;-51
2023/10/09 00:20:56;;;;;;;;;;;;;;;13.20;100.00;101897.19;5114528;28;20317;-50
2023/10/09 00:23:25;;;;;;;;;;;;;;;13.26;100.00;101879.25;5113713;28;19950;-52
2023/10/09 00:26:16;;;;;;;;;;;;;;;13.31;100.00;101876.00;5114564;28;19947;-51
2023/10/09 00:28:47;;;;;;;;;;;;;;;13.36;100.00;101870.09;5112959;28;19912;-51
2023/10/09 00:31:15;;;;;;;;;;;;;;;13.40;100.00;101869.41;5114118;28;19919;-51
2023/10/09 00:33:44;;;;;;;;;;;;;;;13.45;100.00;101870.44;5114678;28;19919;-51
2023/10/09 00:36:09;;;;;;;;;;;;;;;13.46;100.00;101869.63;5113759;28;19957;-51
2023/10/09 00:38:35;;;;;;;;;;;;;;;13.48;100.00;101863.66;5114053;28;19939;-51
2023/10/09 00:41:43;;;;;;;;;;;;;;;13.50;100.00;101856.84;5114253;28;19919;-52
2023/10/09 00:43:52;;;;;;;;;;;;;;;13.55;100.00;101863.88;5105189;28;19993;-51
2023/10/09 00:48:47;;;;;;;;;;;;;;;13.62;100.00;101860.66;5114459;28;19912;-51
2023/10/09 00:51:16;;;;;;;;;;;;;;;13.65;100.00;101871.13;5113106;28;20445;-51
2023/10/09 00:53:50;;;;;;;;;;;;;;;13.68;100.00;101865.19;5114157;28;19912;-50
2023/10/09 00:59:00;;;;;;;;;;;;;;;13.75;100.00;101868.03;5113120;28;19922;-51
2023/10/09 01:01:34;;;;;;;;;;;;;;;13.78;100.00;101872.44;5114057;28;19911;-52
2023/10/09 01:03:59;;;;;;;;;;;;;;;13.79;100.00;101869.88;5113222;28;20355;-51
2023/10/09 01:06:28;;;;;;;;;;;;;;;13.80;100.00;101861.28;5113777;28;19919;-52
2023/10/09 01:09:06;;;;;;;;;;;;;;;13.82;100.00;101861.31;5113976;28;20282;-51
2023/10/09 01:11:32;;;;;;;;;;;;;;;13.83;100.00;101863.97;5112884;28;19959;-51
2023/10/09 01:14:11;;;;;;;;;;;;;;;13.85;100.00;101860.53;5114103;28;19915;-51
2023/10/09 01:16:37;;;;;;;;;;;;;;;13.86;100.00;101865.78;5112966;28;19912;-50
2023/10/09 01:19:12;;;;;;;;;;;;;;;13.86;100.00;101865.78;5113400;28;19918;-52
2023/10/09 01:21:39;;;;;;;;;;;;;;;13.86;100.00;101860.59;5113931;28;20002;-51
2023/10/09 01:24:11;;;;;;;;;;;;;;;13.86;100.00;101851.94;5113955;28;19907;-51
2023/10/09 01:26:40;;;;;;;;;;;;;;;13.85;100.00;101848.44;5112926;28;20275;-51
2023/10/09 01:29:10;;;;;;;;;;;;;;;13.86;100.00;101864.91;5113602;28;19955;-52
2023/10/09 01:31:37;;;;;;;;;;;;;;;13.86;100.00;101870.09;5113534;28;19954;-51
2023/10/09 01:34:09;;;;;;;;;;;;;;;13.84;100.00;101867.44;5112998;28;19916;-51
2023/10/09 01:36:38;;;;;;;;;;;;;;;13.86;100.00;101870.09;5113364;28;19912;-51
2023/10/09 01:39:22;;;;;;;;;;;;;;;13.89;100.00;101864.97;5116297;28;19963;-51
2023/10/09 01:41:49;;;;;;;;;;;;;;;13.89;100.00;101864.97;5117831;28;20286;-51
2023/10/09 01:44:16;;;;;;;;;;;;;;;13.91;100.00;101858.16;5117356;28;20010;-51
2023/10/09 01:46:41;;;;;;;;;;;;;;;13.90;100.00;101856.38;5117049;28;20103;-51
2023/10/09 01:49:10;;;;;;;;;;;;;;;13.91;100.00;101858.16;5117705;28;19951;-51
2023/10/09 01:51:36;;;;;;;;;;;;;;;13.91;100.00;101852.97;5117777;28;19943;-51
2023/10/09 01:54:02;;;;;;;;;;;;;;;13.91;100.00;101861.63;5116962;28;19950;-51
2023/10/09 01:56:28;;;;;;;;;;;;;;;13.92;100.00;101862.50;5117154;28;20377;-51
2023/10/09 01:58:57;;;;;;;;;;;;;;;13.91;100.00;101859.03;5117239;28;19924;-52
2023/10/09 02:01:22;;;;;;;;;;;;;;;13.91;100.00;101853.84;5116525;28;19912;-52
2023/10/09 02:03:51;;;;;;;;;;;;;;;13.92;100.00;101852.16;5117644;28;19965;-50
2023/10/09 02:06:32;;;;;;;;;;;;;;;13.93;100.00;101851.28;5117096;28;19918;-51
2023/10/09 02:08:57;;;;;;;;;;;;;;;13.93;100.00;101861.66;5116437;28;20007;-51
2023/10/09 02:11:36;;;;;;;;;;;;;;;13.93;100.00;101856.47;5116861;28;19951;-51
2023/10/09 02:14:05;;;;;;;;;;;;;;;13.93;100.00;101854.78;5117242;28;19990;-51
2023/10/09 02:16:41;;;;;;;;;;;;;;;13.94;100.00;101858.25;5116888;28;19912;-50
2023/10/09 02:19:08;;;;;;;;;;;;;;;13.93;100.00;101851.28;5117060;28;20311;-51
2023/10/09 02:21:33;;;;;;;;;;;;;;;13.93;100.00;101847.00;5115789;28;20307;-52
2023/10/09 02:24:04;;;;;;;;;;;;;;;13.92;100.00;101841.78;5117168;28;19912;-51
2023/10/09 02:27:06;;;;;;;;;;;;;;;13.93;100.00;101841.81;5116945;28;19919;-49
2023/10/09 02:29:17;;;;;;;;;;;;;;;13.94;100.00;101834.91;5115590;28;20052;-49
2023/10/09 02:31:46;;;;;;;;;;;;;;;13.94;100.00;101828.03;5116901;28;19942;-51
2023/10/09 02:34:12;;;;;;;;;;;;;;;13.93;100.00;101825.38;5116441;28;19923;-51
2023/10/09 02:36:42;;;;;;;;;;;;;;;13.92;100.00;101832.28;5116113;28;19911;-51
2023/10/09 02:42:00;;;;;;;;;;;;;;;13.93;100.00;101815.00;5117151;28;19915;-51
2023/10/09 02:44:26;;;;;;;;;;;;;;;13.94;100.00;101816.78;5115713;28;19911;-50
2023/10/09 02:46:51;;;;;;;;;;;;;;;13.95;100.00;101803.00;5116445;28;19915;-51
2023/10/09 02:49:17;;;;;;;;;;;;;;;13.93;100.00;101802.94;5114148;28;20342;-51
2023/10/09 02:51:42;;;;;;;;;;;;;;;13.93;100.00;101810.72;5116438;28;19907;-51
2023/10/09 02:54:17;;;;;;;;;;;;;;;13.94;100.00;101814.19;5116522;28;19911;-51
2023/10/09 02:56:43;;;;;;;;;;;;;;;13.93;100.00;101815.91;5115497;28;20279;-51
2023/10/09 02:59:09;;;;;;;;;;;;;;;13.93;100.00;101809.81;5116200;28;19915;-51
2023/10/09 03:01:35;;;;;;;;;;;;;;;13.93;100.00;101807.22;5116008;28;19912;-49
2023/10/09 03:04:02;;;;;;;;;;;;;;;13.92;100.00;101819.31;5115565;28;19918;-52
2023/10/09 03:06:30;;;;;;;;;;;;;;;13.92;100.00;101808.97;5115836;28;19922;-50
2023/10/09 03:08:56;;;;;;;;;;;;;;;13.94;100.00;101814.19;5116157;28;19912;-51
2023/10/09 03:11:21;;;;;;;;;;;;;;;13.93;100.00;101809.81;5115071;28;19915;-51
2023/10/09 03:13:47;;;;;;;;;;;;;;;13.93;100.00;101809.81;5115970;28;20352;-51
2023/10/09 03:16:19;;;;;;;;;;;;;;;13.92;100.00;101813.28;5115882;28;19918;-52
2023/10/09 03:18:49;;;;;;;;;;;;;;;13.91;100.00;101796.81;5115280;28;19912;-51
2023/10/09 03:21:14;;;;;;;;;;;;;;;13.92;100.00;101787.34;5115521;28;20363;-51
2023/10/09 03:23:40;;;;;;;;;;;;;;;13.91;100.00;101790.78;5115706;28;19915;-50
2023/10/09 03:26:05;;;;;;;;;;;;;;;13.92;100.00;101797.72;5114857;28;19911;-51
2023/10/09 03:28:30;;;;;;;;;;;;;;;13.92;100.00;101792.53;5115585;28;19912;-52
2023/10/09 03:30:59;;;;;;;;;;;;;;;13.93;100.00;101789.09;5116006;28;19939;-51
2023/10/09 03:33:25;;;;;;;;;;;;;;;13.93;100.00;101794.28;5114766;28;19912;-51
2023/10/09 03:35:50;;;;;;;;;;;;;;;13.92;100.00;101784.78;5115635;28;19911;-52
2023/10/09 03:38:18;;;;;;;;;;;;;;;13.92;100.00;101785.63;5115262;28;19912;-52
2023/10/09 03:40:44;;;;;;;;;;;;;;;13.92;100.00;101771.81;5114632;28;19915;-51
2023/10/09 03:43:10;;;;;;;;;;;;;;;13.91;100.00;101759.69;5115596;28;20285;-51
2023/10/09 03:45:38;;;;;;;;;;;;;;;13.88;100.00;101764.75;5114791;28;20022;-51
2023/10/09 03:48:21;;;;;;;;;;;;;;;13.88;100.00;101772.53;5115451;28;19918;-51
2023/10/09 03:50:47;;;;;;;;;;;;;;;13.88;100.00;101782.88;5115629;28;19915;-52
2023/10/09 03:53:12;;;;;;;;;;;;;;;13.87;100.00;101789.78;5114077;28;19998;-52
2023/10/09 03:55:39;;;;;;;;;;;;;;;13.86;100.00;101781.97;5115403;28;20006;-51
2023/10/09 03:58:04;;;;;;;;;;;;;;;13.85;100.00;101786.25;5114940;28;20432;-51
2023/10/09 04:00:30;;;;;;;;;;;;;;;13.86;100.00;101784.56;5113747;28;20434;-50
2023/10/09 04:02:56;;;;;;;;;;;;;;;13.85;100.00;101780.22;5115089;28;19918;-51
2023/10/09 04:05:22;;;;;;;;;;;;;;;13.85;100.00;101782.81;5114700;28;20002;-51
2023/10/09 04:07:48;;;;;;;;;;;;;;;13.86;100.00;101781.97;5114111;28;19946;-51
2023/10/09 04:10:32;;;;;;;;;;;;;;;13.85;100.00;101782.81;5114553;28;20419;-51
2023/10/09 04:12:58;;;;;;;;;;;;;;;13.82;100.00;101781.88;5114829;28;20274;-51
2023/10/09 04:15:24;;;;;;;;;;;;;;;13.80;100.00;101770.59;5113540;28;20359;-51
2023/10/09 04:17:51;;;;;;;;;;;;;;;13.80;100.00;101757.63;5114802;28;19912;-51
2023/10/09 04:22:51;;;;;;;;;;;;;;;13.79;100.00;101745.50;5113901;28;19916;-55
2023/10/09 04:25:20;;;;;;;;;;;;;;;13.80;100.00;101752.47;5114552;28;19919;-52
2023/10/09 04:27:46;;;;;;;;;;;;;;;13.83;100.00;101756.84;5113876;28;19915;-51
2023/10/09 04:30:15;;;;;;;;;;;;;;;13.82;100.00;101755.94;5114401;28;20252;-51
2023/10/09 04:32:44;;;;;;;;;;;;;;;13.86;100.00;101769.03;5114521;28;20305;-49
2023/10/09 04:37:52;;;;;;;;;;;;;;;13.87;100.00;101794.13;5114868;28;19912;-52
2023/10/09 04:43:06;;;;;;;;;;;;;;;13.86;100.00;101800.13;5113805;28;20373;-51
2023/10/09 04:48:32;;;;;;;;;;;;;;;13.86;100.00;101792.34;5114339;28;19918;-51
2023/10/09 04:53:47;;;;;;;;;;;;;;;13.87;100.00;101809.66;5114462;28;19919;-52
2023/10/09 04:56:15;;;;;;;;;;;;;;;13.86;100.00;101797.53;5113157;28;19915;-52
2023/10/09 04:58:41;;;;;;;;;;;;;;;13.86;100.00;101792.34;5113825;28;19916;-51
2023/10/09 05:01:12;;;;;;;;;;;;;;;13.87;100.00;101794.13;5113977;28;20377;-51
2023/10/09 05:06:21;;;;;;;;;;;;;;;13.87;100.00;101807.94;5113860;28;19911;-52
2023/10/09 05:08:48;;;;;;;;;;;;;;;13.88;100.00;101803.63;5113876;28;20006;-51
2023/10/09 05:14:26;;;;;;;;;;;;;;;13.89;100.00;101789.84;5113806;28;19919;-51
2023/10/09 05:16:55;;;;;;;;;;;;;;;13.89;100.00;101795.03;5113090;28;19911;-51
2023/10/09 05:19:33;;;;;;;;;;;;;;;13.89;100.00;101782.06;5113544;28;19912;-51
2023/10/09 05:22:07;;;;;;;;;;;;;;;13.91;100.00;101807.19;5113871;28;19912;-52
2023/10/09 05:24:43;;;;;;;;;;;;;;;13.90;100.00;101810.59;5112655;28;20294;-52
2023/10/09 05:27:18;;;;;;;;;;;;;;;13.91;100.00;101802.00;5113662;28;19911;-50
2023/10/09 05:29:59;;;;;;;;;;;;;;;13.92;100.00;101800.31;5113742;28;19911;-51
2023/10/09 05:32:34;;;;;;;;;;;;;;;13.92;100.00;101824.50;5112588;28;19923;-51
2023/10/09 05:37:26;;;;;;;;;;;;;;;13.91;100.00;101816.69;5113319;28;19919;-51
2023/10/09 05:42:42;;;;;;;;;;;;;;;13.91;100.00;101829.66;5113298;28;19919;-50
2023/10/09 05:48:05;;;;;;;;;;;;;;;13.93;100.00;101822.78;5113414;28;20386;-51
2023/10/09 06:04:21;;;;;;;;;;;;;;;13.97;100.00;101859.22;5113433;28;19918;-51
2023/10/09 06:06:46;;;;;;;;;;;;;;;13.99;100.00;101856.69;5112477;28;19916;-51
2023/10/09 06:11:49;;;;;;;;;;;;;;;14.01;100.00;101855.03;5113448;28;19958;-51
2023/10/09 06:14:25;;;;;;;;;;;;;;;14.03;100.00;101852.47;5112259;28;20017;-50
2023/10/09 06:25:17;;;;;;;;;;;;;;;14.04;100.00;101849.06;5115043;28;20042;-52
2023/10/09 06:30:14;;;;;;;;;;;;;;;14.07;100.00;101849.13;5116835;28;19981;-51
2023/10/09 06:35:32;;;;;;;;;;;;;;;14.10;100.00;101850.13;5083948;28;20355;-52
2023/10/09 06:43:16;;;;;;;;;;;;;;;14.14;100.00;101846.78;5116265;28;19970;-52
2023/10/09 06:45:45;;;;;;;;;;;;;;;14.15;100.00;101839.88;5116613;28;20295;-51
2023/10/09 06:51:07;;;;;;;;;;;;;;;14.17;100.00;101851.19;5117041;28;19957;-52
2023/10/09 06:58:59;;;;;;;;;;;;;;;14.20;100.00;101824.47;5116181;28;19922;-52
2023/10/09 07:04:18;;;;;;;;;;;;;;;14.25;100.00;101812.53;5115689;28;19950;-52
2023/10/09 07:14:32;;;;;;;;;;;;;;;14.40;100.00;101787.06;5116305;28;19919;-50
2023/10/09 07:16:57;;;;;;;;;;;;;;;14.46;100.00;101782.03;5115125;28;20114;-52
2023/10/09 07:22:03;;;;;;;;;;;;;;;14.56;100.00;101801.31;5116202;28;19960;-52
2023/10/09 07:24:43;;;;;;;;;;;;;;;14.61;100.00;101812.72;5114642;28;19915;-51
2023/10/09 07:27:15;;;;;;;;;;;;;;;14.64;100.00;101832.72;5115850;28;19911;-51
2023/10/09 07:29:49;;;;;;;;;;;;;;;14.67;100.00;101848.38;5115779;28;19919;-51
2023/10/09 07:32:27;;;;;;;;;;;;;;;14.71;100.00;101845.03;5114770;28;20009;-52
2023/10/09 07:34:52;;;;;;;;;;;;;;;14.71;100.00;101860.59;5115414;28;19962;-51
2023/10/09 07:37:19;;;;;;;;;;;;;;;14.72;100.00;101862.38;5114980;28;19919;-51
2023/10/09 07:39:49;;;;;;;;;;;;;;;14.71;100.00;101868.38;5114635;28;20416;-51
2023/10/09 07:42:18;;;;;;;;;;;;;;;14.72;100.00;101887.41;5115220;28;19915;-51
2023/10/09 07:44:52;;;;;;;;;;;;;;;14.73;100.00;101873.63;5114823;28;19916;-51
2023/10/09 07:47:22;;;;;;;;;;;;;;;14.75;100.00;101875.41;5114874;28;20399;-51
2023/10/09 07:49:53;;;;;;;;;;;;;;;14.77;100.00;101875.47;5115321;28;20255;-51
2023/10/09 07:52:21;;;;;;;;;;;;;;;14.74;100.00;101871.06;5114260;28;20264;-50
2023/10/09 07:54:49;;;;;;;;;;;;;;;14.75;100.00;101862.44;5115176;28;19964;-51
2023/10/09 07:57:16;;;;;;;;;;;;;;;14.76;100.00;101856.44;5114548;28;19916;-50
2023/10/09 07:59:54;;;;;;;;;;;;;;;14.76;100.00;101848.63;5114373;28;20392;-50
2023/10/09 08:02:31;;;;;;;;;;;;;;;14.77;100.00;101824.47;5114759;28;20422;-51
2023/10/09 08:05:03;;;;;;;;;;;;;;;14.78;100.00;101836.59;5115076;28;19919;-51
2023/10/09 08:07:34;;;;;;;;;;;;;;;14.79;100.00;101864.28;5113869;28;20406;-51
2023/10/09 08:17:50;;;;;;;;;;;;;;;14.91;100.00;101862.88;5114748;28;20298;-51
2023/10/09 08:20:17;;;;;;;;;;;;;;;14.98;100.00;101854.44;5113583;28;20323;-51
2023/10/09 08:22:42;;;;;;;;;;;;;;;15.01;100.00;101836.34;5114671;28;20363;-51
2023/10/09 08:25:08;;;;;;;;;;;;;;;15.06;100.00;101847.72;5114675;28;19919;-52
2023/10/09 08:33:39;;;;;;;;;;;;;;;15.25;100.00;101827.47;5114831;28;20002;-49
2023/10/09 08:35:51;;;;;;;;;;;;;;;15.33;100.00;101833.72;5113491;28;19957;-52
2023/10/09 08:38:23;;;;;;;;;;;;;;;15.42;100.00;101825.28;5114330;28;19912;-51
2023/10/09 08:40:50;;;;;;;;;;;;;;;15.54;100.00;101822.97;5114482;28;19919;-51
2023/10/09 08:43:17;;;;;;;;;;;;;;;15.70;100.00;101820.75;5113367;28;19918;-52
2023/10/09 08:46:03;;;;;;;;;;;;;;;15.80;100.00;101834.03;5114189;28;19912;-51
2023/10/09 08:48:29;;;;;;;;;;;;;;;15.87;100.00;101823.78;5112462;28;19919;-51
2023/10/09 08:50:55;;;;;;;;;;;;;;;15.91;100.00;101826.50;5114101;28;19912;-51
2023/10/09 08:53:21;;;;;;;;;;;;;;;15.96;100.00;101826.63;5113733;28;19911;-51
2023/10/09 08:55:47;;;;;;;;;;;;;;;16.05;100.00;101834.63;5113305;28;19964;-49
2023/10/09 08:58:34;;;;;;;;;;;;;;;16.12;100.00;101835.63;5113793;28;19915;-51
2023/10/09 09:01:00;;;;;;;;;;;;;;;16.24;100.00;101837.63;5113964;28;19964;-52
2023/10/09 09:03:26;;;;;;;;;;;;;;;16.37;100.00;101844.88;5112792;28;19916;-51
2023/10/09 09:06:01;;;;;;;;;;;;;;;16.60;100.00;101862.69;5113914;28;19934;-51
2023/10/09 09:08:30;;;;;;;;;;;;;;;16.87;100.00;101877.13;5113730;28;19912;-51
2023/10/09 09:11:07;;;;;;;;;;;;;;;17.09;100.00;101887.16;5112952;28;20328;-52
2023/10/09 09:13:34;;;;;;;;;;;;;;;17.22;100.00;101879.56;5113599;28;20366;-51
2023/10/09 09:15:59;;;;;;;;;;;;;;;17.31;100.00;101886.66;5113718;28;19956;-51
2023/10/09 09:18:31;;;;;;;;;;;;;;;17.51;100.00;101900.06;5112533;28;20351;-52
2023/10/09 09:20:59;;;;;;;;;;;;;;;17.66;100.00;101900.31;5113726;28;20390;-50
2023/10/09 09:23:26;;;;;;;;;;;;;;;17.69;100.00;101892.56;5111859;28;19911;-52
2023/10/09 09:25:59;;;;;;;;;;;;;;;17.73;100.00;101901.31;5113793;28;19911;-51
2023/10/09 09:28:26;;;;;;;;;;;;;;;17.77;100.00;101890.94;5113332;28;19916;-51
2023/10/09 09:30:53;;;;;;;;;;;;;;;17.86;100.00;101892.84;5112801;28;19912;-51
2023/10/09 09:33:42;;;;;;;;;;;;;;;17.89;100.00;101898.09;5113224;28;19912;-49
2023/10/09 09:36:11;;;;;;;;;;;;;;;17.99;100.00;101906.97;5113683;28;20006;-51
2023/10/09 09:38:49;;;;;;;;;;;;;;;18.05;100.00;101909.69;5112755;28;19911;-51
2023/10/09 09:41:24;;;;;;;;;;;;;;;18.10;100.00;101913.25;5113140;28;20283;-50
2023/10/09 09:44:01;;;;;;;;;;;;;;;18.23;100.00;101919.53;5113404;28;20363;-51
2023/10/09 09:46:37;;;;;;;;;;;;;;;18.29;100.00;101913.50;5112492;28;20002;-51
2023/10/09 09:49:05;;;;;;;;;;;;;;;18.28;100.00;101916.97;5113342;28;19918;-52
2023/10/09 09:51:34;;;;;;;;;;;;;;;18.29;100.00;101926.56;5112314;28;19928;-51
2023/10/09 09:53:59;;;;;;;;;;;;;;;18.32;100.00;101921.41;5113516;28;19911;-51
2023/10/09 09:56:25;;;;;;;;;;;;;;;18.32;100.00;101921.41;5113056;28;19923;-51
2023/10/09 09:58:56;;;;;;;;;;;;;;;18.38;100.00;101924.06;5113607;28;20023;-51
2023/10/09 10:01:41;;;;;;;;;;;;;;;18.48;100.00;101926.84;5117061;28;20623;-51
2023/10/09 10:04:13;;;;;;;;;;;;;;;18.56;100.00;101917.38;5117270;28;19933;-51
2023/10/09 10:06:41;;;;;;;;;;;;;;;18.66;100.00;101915.78;5116669;28;19918;-52
2023/10/09 10:09:07;;;;;;;;;;;;;;;18.73;100.00;101913.28;5117357;28;19919;-52
2023/10/09 10:11:44;;;;;;;;;;;;;;;18.82;100.00;101919.44;5117067;28;19912;-52
2023/10/09 10:14:11;;;;;;;;;;;;;;;18.88;100.00;101916.94;5116725;28;20369;-50
2023/10/09 10:16:55;;;;;;;;;;;;;;;18.87;100.00;101917.78;5116978;28;19954;-52
2023/10/09 10:21:49;;;;;;;;;;;;;;;18.90;100.00;101913.50;5116779;28;19911;-52
2023/10/09 10:24:51;;;;;;;;;;;;;;;18.96;100.00;101915.31;5116763;28;19998;-52
2023/10/09 10:27:26;;;;;;;;;;;;;;;18.99;100.00;101917.97;5116003;28;19919;-52
2023/10/09 10:30:25;;;;;;;;;;;;;;;19.10;100.00;101919.84;5116991;28;19996;-52
2023/10/09 10:32:51;;;;;;;;;;;;;;;19.22;100.00;101925.19;5096456;28;19912;-52
2023/10/09 10:35:16;;;;;;;;;;;;;;;19.29;100.00;101919.16;5115580;28;19911;-51
2023/10/09 10:37:51;;;;;;;;;;;;;;;19.42;100.00;101920.16;5116957;28;20275;-51
2023/10/09 10:41:11;;;;;;;;;;;;;;;19.57;100.00;101914.19;5116675;28;19912;-52
2023/10/09 10:46:37;;;;;;;;;;;;;;;19.65;100.00;101903.81;5053598;28;19912;-52
2023/10/09 10:51:38;;;;;;;;;;;;;;;19.69;100.00;101909.09;5093575;28;20275;-52
2023/10/09 10:54:28;;;;;;;;;;;;;;;19.83;100.00;101910.97;5116409;28;20367;-51
2023/10/09 10:56:57;;;;;;;;;;;;;;;19.95;100.00;101916.31;5115423;28;20375;-52
2023/10/09 10:59:22;;;;;;;;;;;;;;;19.95;100.00;101913.69;5116116;28;19916;-51
2023/10/09 11:04:24;;;;;;;;;;;;;;;19.99;100.00;101920.69;5116045;28;19920;-52
2023/10/09 11:06:52;;;;;;;;;;;;;;;20.09;100.00;101923.38;5116483;28;19912;-52
2023/10/09 11:09:21;;;;;;;;;;;;;;;20.24;100.00;101915.63;5115208;28;19991;-52
2023/10/09 11:11:47;;;;;;;;;;;;;;;20.36;100.00;101920.06;5115149;28;19939;-51
2023/10/09 11:14:15;;;;;;;;;;;;;;;20.48;100.00;101929.75;5115707;28;19993;-52
2023/10/09 11:16:41;;;;;;;;;;;;;;;20.61;100.00;101930.69;5115117;28;19955;-51
2023/10/09 11:19:31;;;;;;;;;;;;;;;20.78;100.00;101925.56;5115899;28;19984;-52
2023/10/09 11:24:34;;;;;;;;;;;;;;;21.05;100.00;101917.78;5115329;28;19975;-52
2023/10/09 11:27:05;;;;;;;;;;;;;;;21.18;100.00;101923.94;5115946;28;19915;-51
2023/10/09 11:32:18;;;;;;;;;;;;;;;21.45;100.00;101916.16;5115767;28;19911;-52
2023/10/09 11:34:53;;;;;;;;;;;;;;;21.53;100.00;101915.25;5115759;28;19915;-52
2023/10/09 11:39:56;;;;;;;;;;;;;;;21.80;100.00;101912.69;5115683;28;19951;-52
2023/10/09 11:45:19;;;;;;;;;;;;;;;21.62;100.00;101919.69;5115102;28;19957;-52
2023/10/09 11:48:00;;;;;;;;;;;;;;;21.62;100.00;101918.81;5115459;28;19907;-51
2023/10/09 11:50:50;;;;;;;;;;;;;;;21.68;100.00;101916.19;5115002;28;19917;-51
2023/10/09 11:55:49;;;;;;;;;;;;;;;21.62;100.00;101930.16;5115313;28;19956;-52
2023/10/09 11:58:24;;;;;;;;;;;;;;;21.59;99.88;101924.94;5114007;28;19919;-52
2023/10/09 12:00:56;;;;;;;;;;;;;;;21.47;100.00;101919.63;5115035;28;19911;-51
2023/10/09 12:03:23;;;;;;;;;;;;;;;21.43;100.00;101921.38;5114976;28;19912;-51
2023/10/09 12:05:53;;;;;;;;;;;;;;;21.42;100.00;101918.75;5114410;28;19981;-52
2023/10/09 12:08:22;;;;;;;;;;;;;;;21.42;100.00;101919.63;5114754;28;20316;-52
2023/10/09 12:10:48;;;;;;;;;;;;;;;21.45;98.58;101927.50;5114983;28;19912;-52
2023/10/09 12:13:15;;;;;;;;;;;;;;;21.43;100.00;101918.75;5113738;28;19918;-52
2023/10/09 12:15:40;;;;;;;;;;;;;;;21.35;100.00;101913.47;5115069;28;19965;-52
2023/10/09 12:18:14;;;;;;;;;;;;;;;21.25;100.00;101909.09;5114997;28;19915;-52
2023/10/09 12:20:39;;;;;;;;;;;;;;;21.21;100.00;101904.72;5114168;28;19919;-52
2023/10/09 12:23:05;;;;;;;;;;;;;;;21.19;100.00;101914.34;5114629;28;20276;-51
2023/10/09 12:25:31;;;;;;;;;;;;;;;21.12;100.00;101904.69;5114549;28;19916;-52
2023/10/09 12:27:57;;;;;;;;;;;;;;;21.12;100.00;101897.75;5113782;28;20030;-52
2023/10/09 12:30:26;;;;;;;;;;;;;;;21.12;100.00;101900.34;5114406;28;19939;-52
2023/10/09 12:32:52;;;;;;;;;;;;;;;21.02;100.00;101902.06;5114437;28;19912;-52
2023/10/09 12:35:17;;;;;;;;;;;;;;;20.99;100.00;101896.81;5113354;28;19918;-52
2023/10/09 12:37:43;;;;;;;;;;;;;;;20.97;100.00;101892.44;5114326;28;19923;-52
2023/10/09 12:40:10;;;;;;;;;;;;;;;21.05;100.00;101888.09;5113668;28;19954;-52
2023/10/09 12:42:35;;;;;;;;;;;;;;;21.18;100.00;101889.00;5114246;28;19939;-52
2023/10/09 12:45:07;;;;;;;;;;;;;;;21.27;100.00;101889.00;5114624;28;20343;-51
2023/10/09 12:47:33;;;;;;;;;;;;;;;21.29;100.00;101883.75;5113099;28;19918;-52
2023/10/09 12:49:58;;;;;;;;;;;;;;;21.33;100.00;101875.03;5114295;28;19911;-52
2023/10/09 12:52:29;;;;;;;;;;;;;;;21.43;100.00;101871.53;5113898;28;19912;-52
2023/10/09 12:54:54;;;;;;;;;;;;;;;21.44;100.00;101864.56;5113321;28;19911;-52
2023/10/09 12:57:19;;;;;;;;;;;;;;;21.38;99.03;101863.69;5113444;28;19923;-51
2023/10/09 12:59:45;;;;;;;;;;;;;;;21.31;100.00;101859.28;5114320;28;20466;-51
2023/10/09 13:02:28;;;;;;;;;;;;;;;21.54;100.00;101856.72;5113231;28;19915;-52
2023/10/09 13:04:54;;;;;;;;;;;;;;;21.93;97.25;101861.06;5114020;28;19911;-51
2023/10/09 13:07:21;;;;;;;;;;;;;;;22.19;99.12;101858.38;5113567;28;19952;-52
2023/10/09 13:12:30;;;;;;;;;;;;;;;22.63;94.45;101859.13;5114010;28;19997;-52
2023/10/09 13:14:56;;;;;;;;;;;;;;;22.62;92.49;101865.25;5113821;28;20286;-53
2023/10/09 13:17:22;;;;;;;;;;;;;;;22.45;87.73;101855.72;5112586;28;19919;-51
2023/10/09 13:19:47;;;;;;;;;;;;;;;22.24;93.97;101864.50;5113694;28;19942;-52
2023/10/09 13:22:15;;;;;;;;;;;;;;;22.03;89.19;101863.66;5113045;28;19939;-51
2023/10/09 13:24:40;;;;;;;;;;;;;;;21.83;90.99;101866.34;5113634;28;20351;-52
2023/10/09 13:27:09;;;;;;;;;;;;;;;21.74;94.75;101870.72;5113633;28;20049;-52
2023/10/09 13:29:34;;;;;;;;;;;;;;;21.64;90.73;101875.06;5112734;28;19970;-52
2023/10/09 13:32:02;;;;;;;;;;;;;;;21.50;91.32;101882.94;5113772;28;20023;-52
2023/10/09 13:34:28;;;;;;;;;;;;;;;21.41;93.01;101888.16;5112633;28;19916;-52
2023/10/09 13:36:53;;;;;;;;;;;;;;;21.34;93.68;101872.44;5112611;28;19972;-52
2023/10/09 13:39:23;;;;;;;;;;;;;;;21.32;93.62;101870.69;5113218;28;19915;-52
2023/10/09 13:41:58;;;;;;;;;;;;;;;21.37;93.73;101869.78;5113737;28;19907;-52
2023/10/09 13:44:30;;;;;;;;;;;;;;;21.56;93.64;101882.06;5112495;28;19912;-52
2023/10/09 13:46:59;;;;;;;;;;;;;;;21.77;96.49;101876.84;5112952;28;19937;-53
2023/10/09 13:49:29;;;;;;;;;;;;;;;21.92;96.23;101875.06;5113332;28;19919;-52
2023/10/09 13:51:56;;;;;;;;;;;;;;;22.02;95.82;101876.81;5112602;28;19919;-52
2023/10/09 13:54:28;;;;;;;;;;;;;;;22.07;95.30;101879.44;5113110;28;19943;-53
2023/10/09 13:56:53;;;;;;;;;;;;;;;22.20;95.05;101886.41;5113605;28;19911;-52
2023/10/09 13:59:21;;;;;;;;;;;;;;;22.40;94.01;101880.25;5112195;28;19919;-52
2023/10/09 14:01:47;;;;;;;;;;;;;;;22.44;91.47;101879.34;5113292;28;19981;-52
2023/10/09 14:04:18;;;;;;;;;;;;;;;22.38;91.72;101884.66;5113345;28;19912;-52
2023/10/09 14:06:44;;;;;;;;;;;;;;;22.28;87.84;101883.75;5112699;28;19919;-52
2023/10/09 14:09:10;;;;;;;;;;;;;;;22.17;87.65;101886.41;5113346;28;19995;-51
2023/10/09 14:11:39;;;;;;;;;;;;;;;22.06;88.36;101886.41;5112124;28;19970;-51
2023/10/09 14:14:09;;;;;;;;;;;;;;;22.00;88.89;101883.78;5113184;28;19950;-52
2023/10/09 14:16:35;;;;;;;;;;;;;;;21.91;90.44;101882.06;5113135;28;20060;-52
2023/10/09 14:19:00;;;;;;;;;;;;;;;21.92;91.96;101875.06;5112797;28;19994;-52
2023/10/09 14:21:29;;;;;;;;;;;;;;;21.87;87.30;101869.81;5113111;28;19912;-52
2023/10/09 14:23:57;;;;;;;;;;;;;;;21.86;87.52;101875.97;5113189;28;20484;-52
2023/10/09 14:26:26;;;;;;;;;;;;;;;21.84;88.88;101872.44;5112076;28;19919;-52
2023/10/09 14:28:52;;;;;;;;;;;;;;;21.89;87.35;101869.84;5113128;28;19912;-52
2023/10/09 14:31:20;;;;;;;;;;;;;;;21.90;87.02;101877.69;5113018;28;19912;-52
2023/10/09 14:33:51;;;;;;;;;;;;;;;21.92;86.16;101881.19;5112589;28;19961;-53
2023/10/09 14:36:16;;;;;;;;;;;;;;;21.90;87.48;101874.19;5112817;28;19912;-52
2023/10/09 14:38:42;;;;;;;;;;;;;;;21.80;88.00;101865.47;5113360;28;19918;-52
2023/10/09 14:41:11;;;;;;;;;;;;;;;21.65;88.61;101880.34;5112267;28;19930;-52
2023/10/09 14:43:36;;;;;;;;;;;;;;;21.45;86.92;101877.66;5112888;28;19912;-53
2023/10/09 14:46:04;;;;;;;;;;;;;;;21.23;90.73;101876.78;5115875;28;19919;-53
2023/10/09 14:48:36;;;;;;;;;;;;;;;21.05;90.68;101870.59;5115515;28;20374;-52
2023/10/09 14:51:04;;;;;;;;;;;;;;;20.88;90.98;101877.56;5116621;28;19911;-54
2023/10/09 14:53:30;;;;;;;;;;;;;;;20.73;90.11;101865.28;5116381;28;19915;-53